createdAt,value
2022-08-11T00:01:19.309Z,8.07
2022-08-11T00:03:57.452Z,8.50
2022-08-11T00:06:33.995Z,7.18
2022-08-11T00:09:04.063Z,7.00
2022-08-11T00:11:37.805Z,7.00
2022-08-11T00:14:12.915Z,6.00
2022-08-11T00:16:41.871Z,6.63
2022-08-11T00:19:09.207Z,6.00
2022-08-11T00:22:03.817Z,6.22
2022-08-11T00:24:53.379Z,5.30
2022-08-11T00:27:31.739Z,6.05
2022-08-11T00:29:58.347Z,5.80
2022-08-11T00:32:25.298Z,6.50
2022-08-11T00:34:52.716Z,4.60
2022-08-11T00:37:45.130Z,5.05
2022-08-11T00:40:23.117Z,4.63
2022-08-11T00:42:52.544Z,4.90
2022-08-11T00:45:41.081Z,5.85
2022-08-11T00:48:27.651Z,5.78
2022-08-11T00:51:19.041Z,5.30
2022-08-11T00:54:03.133Z,4.50
2022-08-11T00:56:50.041Z,6.28
2022-08-11T00:59:39.107Z,5.00
2022-08-11T01:02:11.532Z,4.88
2022-08-11T01:04:57.174Z,3.65
2022-08-11T01:08:02.049Z,4.45
2022-08-11T01:10:48.485Z,4.60
2022-08-11T01:13:36.957Z,4.40
2022-08-11T01:16:47.068Z,5.10
2022-08-11T01:20:45.790Z,4.65
2022-08-11T01:23:17.684Z,4.55
2022-08-11T01:26:17.617Z,4.20
2022-08-11T01:29:21.830Z,5.10
2022-08-11T01:32:03.789Z,4.57
2022-08-11T01:35:07.439Z,5.15
2022-08-11T01:37:57.716Z,5.10
2022-08-11T01:40:48.577Z,4.55
2022-08-11T01:44:01.234Z,5.22
2022-08-11T01:46:43.423Z,5.38
2022-08-11T01:50:06.693Z,4.78
2022-08-11T01:52:20.693Z,4.80
2022-08-11T01:55:26.685Z,5.25
2022-08-11T01:58:18.051Z,5.50
2022-08-11T02:01:16.607Z,5.10
2022-08-11T02:04:09.707Z,4.80
2022-08-11T02:06:57.643Z,6.00
2022-08-11T02:09:49.683Z,6.80
2022-08-11T02:12:26.450Z,5.57
2022-08-11T02:15:14.556Z,5.05
2022-08-11T02:17:59.339Z,5.85
2022-08-11T02:21:00.499Z,5.68
2022-08-11T02:24:06.157Z,5.22
2022-08-11T02:26:40.192Z,4.65
2022-08-11T02:29:40.346Z,4.28
2022-08-11T02:32:50.689Z,5.30
2022-08-11T02:35:22.983Z,5.65
2022-08-11T02:38:10.905Z,6.57
2022-08-11T02:41:33.428Z,6.40
2022-08-11T02:44:28.190Z,6.32
2022-08-11T02:47:14.529Z,6.90
2022-08-11T02:50:06.878Z,7.63
2022-08-11T02:52:41.421Z,7.22
2022-08-11T02:55:44.467Z,7.25
2022-08-11T02:58:37.190Z,6.57
2022-08-11T03:01:18.309Z,8.00
2022-08-11T03:04:00.583Z,7.40
2022-08-11T03:06:39.348Z,7.20
2022-08-11T03:09:27.223Z,6.88
2022-08-11T03:12:28.615Z,6.32
2022-08-11T03:15:34.637Z,5.53
2022-08-11T03:18:26.804Z,7.40
2022-08-11T03:21:23.643Z,5.47
2022-08-11T03:24:01.601Z,5.45
2022-08-11T03:26:40.108Z,5.38
2022-08-11T03:29:28.445Z,6.13
2022-08-11T03:32:11.262Z,6.68
2022-08-11T03:34:40.420Z,6.82
2022-08-11T03:37:46.676Z,6.88
2022-08-11T03:40:37.784Z,7.47
2022-08-11T03:43:45.792Z,6.53
2022-08-11T03:46:44.964Z,7.47
2022-08-11T03:49:20.890Z,6.72
2022-08-11T03:51:53.166Z,6.30
2022-08-11T03:54:38.496Z,6.43
2022-08-11T03:57:21.043Z,6.38
2022-08-11T04:00:18.337Z,6.65
2022-08-11T04:03:20.633Z,6.53
2022-08-11T04:06:27.207Z,6.63
2022-08-11T04:09:24.809Z,6.95
2022-08-11T04:12:01.538Z,7.35
2022-08-11T04:14:46.449Z,8.25
2022-08-11T04:17:28.191Z,8.30
2022-08-11T04:20:09.626Z,7.10
2022-08-11T04:22:56.333Z,7.20
2022-08-11T04:26:06.276Z,7.57
2022-08-11T04:28:51.424Z,7.93
2022-08-11T04:31:44.278Z,8.00
2022-08-11T04:34:28.296Z,7.80
2022-08-11T04:37:31.418Z,6.80
2022-08-11T04:40:31.644Z,8.32
2022-08-11T04:43:32.537Z,8.85
2022-08-11T04:49:13.756Z,8.48
2022-08-11T04:52:37.605Z,8.60
2022-08-11T04:55:48.288Z,9.07
2022-08-11T04:58:54.030Z,8.95
2022-08-11T05:01:41.513Z,9.00
2022-08-11T05:04:54.486Z,8.57
2022-08-11T05:07:49.257Z,9.63
2022-08-11T05:10:43.569Z,9.07
2022-08-11T05:13:30.768Z,8.77
2022-08-11T05:16:28.150Z,9.43
2022-08-11T05:19:16.228Z,8.98
2022-08-11T05:22:19.383Z,8.68
2022-08-11T05:25:09.721Z,7.85
2022-08-11T05:27:58.930Z,8.57
2022-08-11T05:30:51.317Z,8.50
2022-08-11T05:33:44.611Z,9.18
2022-08-11T05:36:24.288Z,9.20
2022-08-11T05:39:15.988Z,10.35
2022-08-11T05:42:01.617Z,9.85
2022-08-11T05:44:48.402Z,10.23
2022-08-11T05:47:45.270Z,10.63
2022-08-11T05:50:33.048Z,11.25
2022-08-11T05:53:19.913Z,11.15
2022-08-11T05:56:06.162Z,10.20
2022-08-11T05:58:41.168Z,9.38
2022-08-11T06:01:09.537Z,10.77
2022-08-11T06:03:58.236Z,11.52
2022-08-11T06:06:27.060Z,10.00
2022-08-11T06:08:58.888Z,10.73
2022-08-11T06:11:43.928Z,11.52
2022-08-11T06:14:14.638Z,9.95
2022-08-11T06:16:42.747Z,11.70
2022-08-11T06:19:10.384Z,9.05
2022-08-11T06:21:38.085Z,9.05
2022-08-11T06:24:11.869Z,8.45
2022-08-11T06:27:10.721Z,7.97
2022-08-11T06:29:48.087Z,8.27
2022-08-11T06:32:35.895Z,8.70
2022-08-11T06:35:34.892Z,8.68
2022-08-11T06:38:26.157Z,7.40
2022-08-11T06:41:23.101Z,7.43
2022-08-11T06:43:55.194Z,8.35
2022-08-11T06:46:38.873Z,8.27
2022-08-11T06:49:06.848Z,7.10
2022-08-11T06:51:38.427Z,6.82
2022-08-11T06:54:13.482Z,7.72
2022-08-11T06:57:28.966Z,6.57
2022-08-11T07:00:06.826Z,6.03
2022-08-11T07:02:52.695Z,7.28
2022-08-11T07:05:37.444Z,7.78
2022-08-11T07:08:33.937Z,6.50
2022-08-11T07:12:06.750Z,8.93
2022-08-11T07:14:53.075Z,5.75
2022-08-11T07:17:25.982Z,5.63
2022-08-11T07:20:19.855Z,6.00
2022-08-11T07:23:15.117Z,5.13
2022-08-11T07:26:02.497Z,4.43
2022-08-11T07:28:48.761Z,5.93
2022-08-11T07:31:24.150Z,4.40
2022-08-11T07:34:20.725Z,5.97
2022-08-11T07:36:58.768Z,3.95
2022-08-11T07:39:32.699Z,4.07
2022-08-11T07:42:04.876Z,3.35
2022-08-11T07:44:34.961Z,3.28
2022-08-11T07:47:20.858Z,3.83
2022-08-11T07:50:08.680Z,3.35
2022-08-11T07:52:38.211Z,3.75
2022-08-11T07:55:13.501Z,3.95
2022-08-11T07:58:16.970Z,3.47
2022-08-11T08:01:09.884Z,2.67
2022-08-11T08:06:42.584Z,3.25
2022-08-11T08:09:28.829Z,4.97
2022-08-11T08:12:15.610Z,2.70
2022-08-11T08:15:01.455Z,3.00
2022-08-11T08:18:09.014Z,2.95
2022-08-11T08:20:39.413Z,3.05
2022-08-11T08:23:06.892Z,2.92
2022-08-11T08:25:36.270Z,2.67
2022-08-11T08:28:07.383Z,2.63
2022-08-11T08:30:52.578Z,2.53
2022-08-11T08:33:23.353Z,3.28
2022-08-11T08:36:11.639Z,2.90
2022-08-11T08:38:54.079Z,2.10
2022-08-11T08:41:25.233Z,2.25
2022-08-11T08:43:55.842Z,2.38
2022-08-11T08:46:28.198Z,2.30
2022-08-11T08:51:58.708Z,2.42
2022-08-11T08:54:27.822Z,2.75
2022-08-11T08:56:56.758Z,2.20
2022-08-11T08:59:47.927Z,2.65
2022-08-11T09:02:14.201Z,2.47
2022-08-11T09:04:44.663Z,2.80
2022-08-11T09:07:15.393Z,2.45
2022-08-11T09:09:47.759Z,2.88
2022-08-11T09:12:15.469Z,2.80
2022-08-11T09:15:03.660Z,2.67
2022-08-11T09:17:44.844Z,2.70
2022-08-11T09:20:24.665Z,2.05
2022-08-11T09:24:08.857Z,3.45
2022-08-11T09:26:20.004Z,2.88
2022-08-11T09:28:49.723Z,2.47
2022-08-11T09:31:16.721Z,3.88
2022-08-11T09:33:44.548Z,2.95
2022-08-11T09:36:31.796Z,3.03
2022-08-11T09:39:19.214Z,3.08
2022-08-11T09:42:00.945Z,2.97
2022-08-11T09:44:49.987Z,2.90
2022-08-11T09:47:29.796Z,2.63
2022-08-11T09:50:02.095Z,3.07
2022-08-11T09:52:31.237Z,2.47
2022-08-11T09:54:58.669Z,2.50
2022-08-11T09:57:44.226Z,2.45
2022-08-11T10:00:14.199Z,2.80
2022-08-11T10:05:34.884Z,2.50
2022-08-11T10:08:04.161Z,2.97
2022-08-11T10:10:35.790Z,2.42
2022-08-11T10:13:44.072Z,2.42
2022-08-11T10:16:00.107Z,2.53
2022-08-11T10:18:49.262Z,2.35
2022-08-11T10:21:28.302Z,2.33
2022-08-11T10:24:17.281Z,2.90
2022-08-11T10:26:54.640Z,2.65
2022-08-11T10:29:44.377Z,2.25
2022-08-11T10:32:58.307Z,2.78
2022-08-11T10:35:28.048Z,3.45
2022-08-11T10:38:08.876Z,2.70
2022-08-11T10:40:39.458Z,2.83
2022-08-11T10:43:10.519Z,2.38
2022-08-11T10:45:57.729Z,2.75
2022-08-11T10:48:26.621Z,2.50
2022-08-11T10:51:13.357Z,2.58
2022-08-11T10:54:02.518Z,2.40
2022-08-11T10:56:49.465Z,3.20
2022-08-11T10:59:17.088Z,2.45
2022-08-11T11:01:45.392Z,2.60
2022-08-11T11:04:23.145Z,2.25
2022-08-11T11:07:14.952Z,2.20
2022-08-11T11:09:48.343Z,2.30
2022-08-11T11:12:46.881Z,2.75
2022-08-11T11:15:36.722Z,2.38
2022-08-11T11:18:11.574Z,2.35
2022-08-11T11:20:54.961Z,2.10
2022-08-11T11:23:52.334Z,2.55
2022-08-11T11:26:35.948Z,1.67
2022-08-11T11:29:26.976Z,2.22
2022-08-11T11:32:19.325Z,2.15
2022-08-11T11:35:26.627Z,1.83
2022-08-11T11:37:58.502Z,2.17
2022-08-11T11:40:33.029Z,2.22
2022-08-11T11:43:01.013Z,2.17
2022-08-11T11:45:27.906Z,2.13
2022-08-11T11:47:56.370Z,1.92
2022-08-11T11:50:25.365Z,1.80
2022-08-11T11:53:01.461Z,1.83
2022-08-11T11:55:29.448Z,2.85
2022-08-11T11:58:18.899Z,3.45
2022-08-11T12:01:05.985Z,2.83
2022-08-11T12:03:34.407Z,1.70
2022-08-11T12:06:02.825Z,2.70
2022-08-11T12:08:30.118Z,12.77
2022-08-11T12:11:31.738Z,2.75
2022-08-11T12:14:03.275Z,2.55
2022-08-11T12:16:39.321Z,2.08
2022-08-11T12:19:12.986Z,2.05
2022-08-11T12:22:01.408Z,2.78
2022-08-11T12:24:49.367Z,1.75
2022-08-11T12:27:25.306Z,1.60
2022-08-11T12:30:06.415Z,2.08
2022-08-11T12:32:36.525Z,1.50
2022-08-11T12:37:33.193Z,2.53
2022-08-11T12:40:43.782Z,3.85
2022-08-11T12:43:39.854Z,2.72
2022-08-11T12:46:19.304Z,2.35
2022-08-11T12:49:07.739Z,2.53
2022-08-11T12:52:14.637Z,3.13
2022-08-11T12:54:51.433Z,2.00
2022-08-11T12:57:57.915Z,2.08
2022-08-11T13:00:45.424Z,2.10
2022-08-11T13:03:32.639Z,2.40
2022-08-11T13:06:02.573Z,2.50
2022-08-11T13:08:33.586Z,2.28
2022-08-11T13:11:21.374Z,2.13
2022-08-11T13:13:54.168Z,2.30
2022-08-11T13:16:26.226Z,2.53
2022-08-11T13:18:53.751Z,2.03
2022-08-11T13:21:22.011Z,2.50
2022-08-11T13:24:00.439Z,3.00
2022-08-11T13:26:41.644Z,1.90
2022-08-11T13:29:17.763Z,2.53
2022-08-11T13:31:45.530Z,2.10
2022-08-11T13:34:12.962Z,2.20
2022-08-11T13:36:40.766Z,2.33
2022-08-11T13:39:07.796Z,2.58
2022-08-11T13:41:41.762Z,1.90
2022-08-11T13:44:12.021Z,2.22
2022-08-11T13:46:41.403Z,2.30
2022-08-11T13:49:11.332Z,1.90
2022-08-11T13:51:40.133Z,2.75
2022-08-11T13:54:12.112Z,2.10
2022-08-11T13:56:42.261Z,2.85
2022-08-11T14:02:20.239Z,2.28
2022-08-11T14:04:33.950Z,2.33
2022-08-11T14:07:06.326Z,2.30
2022-08-11T14:09:37.549Z,2.20
2022-08-11T14:12:29.769Z,2.60
2022-08-11T14:15:08.089Z,2.17
2022-08-11T14:17:48.731Z,2.00
2022-08-11T14:20:38.754Z,2.03
2022-08-11T14:23:05.988Z,1.88
2022-08-11T14:25:59.697Z,2.10
2022-08-11T14:28:31.607Z,2.08
2022-08-11T14:31:03.067Z,2.60
2022-08-11T14:34:00.684Z,2.92
2022-08-11T14:36:21.508Z,2.17
2022-08-11T14:38:48.622Z,1.75
2022-08-11T14:41:34.462Z,1.67
2022-08-11T14:44:19.805Z,2.60
2022-08-11T14:47:05.691Z,2.50
2022-08-11T14:50:09.633Z,1.45
2022-08-11T14:52:43.319Z,2.13
2022-08-11T14:55:30.830Z,2.17
2022-08-11T14:57:58.138Z,1.92
2022-08-11T15:00:26.427Z,1.88
2022-08-11T15:03:13.733Z,2.65
2022-08-11T15:06:02.194Z,2.10
2022-08-11T15:08:49.590Z,1.98
2022-08-11T15:11:36.811Z,1.70
2022-08-11T15:14:06.157Z,2.28
2022-08-11T15:16:51.857Z,1.60
2022-08-11T15:19:23.424Z,2.00
2022-08-11T15:22:08.922Z,2.20
2022-08-11T15:24:36.548Z,1.73
2022-08-11T15:27:29.584Z,2.15
2022-08-11T15:30:20.231Z,2.20
2022-08-11T15:33:19.229Z,2.00
2022-08-11T15:36:04.533Z,2.13
2022-08-11T15:38:36.729Z,1.92
2022-08-11T15:41:35.957Z,2.20
2022-08-11T15:44:34.013Z,2.25
2022-08-11T15:47:14.246Z,1.55
2022-08-11T15:50:10.731Z,2.50
2022-08-11T15:52:34.672Z,2.60
2022-08-11T15:55:08.511Z,1.77
2022-08-11T15:57:55.873Z,2.03
2022-08-11T16:01:02.081Z,2.60
2022-08-11T16:04:07.106Z,2.05
2022-08-11T16:06:38.329Z,2.13
2022-08-11T16:09:18.054Z,3.05
2022-08-11T16:11:46.450Z,1.90
2022-08-11T16:14:34.228Z,2.40
2022-08-11T16:17:02.946Z,2.25
2022-08-11T16:19:35.145Z,2.08
2022-08-11T16:22:07.192Z,1.58
2022-08-11T16:27:05.715Z,1.98
2022-08-11T16:27:25.476Z,2.28
2022-08-11T16:29:55.186Z,1.52
2022-08-11T16:32:24.504Z,1.92
2022-08-11T16:35:15.625Z,1.70
2022-08-11T16:38:03.466Z,2.25
2022-08-11T16:40:32.389Z,1.98
2022-08-11T16:43:19.159Z,2.25
2022-08-11T16:46:05.850Z,2.03
2022-08-11T16:48:38.233Z,1.85
2022-08-11T16:51:07.249Z,1.83
2022-08-11T16:53:54.787Z,1.98
2022-08-11T16:56:27.332Z,1.80
2022-08-11T16:59:16.739Z,2.03
2022-08-11T17:01:52.918Z,2.00
2022-08-11T17:04:55.014Z,1.83
2022-08-11T17:07:43.295Z,3.08
2022-08-11T17:10:51.598Z,2.20
2022-08-11T17:13:25.816Z,2.00
2022-08-11T17:16:09.381Z,2.70
2022-08-11T17:18:43.005Z,1.80
2022-08-11T17:21:13.928Z,1.90
2022-08-11T17:23:52.309Z,1.83
2022-08-11T17:26:23.223Z,2.90
2022-08-11T17:28:56.653Z,2.53
2022-08-11T17:31:43.090Z,2.10
2022-08-11T17:34:29.984Z,2.05
2022-08-11T17:36:57.590Z,2.20
2022-08-11T17:39:29.177Z,2.53
2022-08-11T17:42:14.883Z,2.28
2022-08-11T17:45:01.728Z,2.72
2022-08-11T17:47:48.878Z,1.77
2022-08-11T17:50:17.139Z,2.58
2022-08-11T17:53:04.655Z,2.22
2022-08-11T17:55:53.559Z,1.85
2022-08-11T17:58:40.293Z,3.22
2022-08-11T18:01:09.574Z,2.22
2022-08-11T18:03:39.906Z,2.30
2022-08-11T18:09:04.805Z,2.25
2022-08-11T18:12:10.259Z,2.30
2022-08-11T18:14:59.361Z,1.90
2022-08-11T18:17:44.471Z,2.70
2022-08-11T18:20:29.744Z,2.85
2022-08-11T18:23:16.069Z,2.72
2022-08-11T18:26:07.361Z,2.67
2022-08-11T18:28:58.538Z,2.50
2022-08-11T18:31:44.762Z,3.33
2022-08-11T18:34:34.773Z,2.42
2022-08-11T18:37:29.334Z,3.10
2022-08-11T18:40:22.110Z,3.05
2022-08-11T18:43:09.011Z,3.00
2022-08-11T18:46:06.551Z,2.58
2022-08-11T18:48:55.295Z,2.85
2022-08-11T18:51:42.662Z,3.38
2022-08-11T18:54:30.011Z,3.35
2022-08-11T18:57:19.854Z,3.03
2022-08-11T19:00:07.264Z,3.42
2022-08-11T19:02:55.740Z,2.58
2022-08-11T19:06:32.204Z,2.70
2022-08-11T19:08:55.670Z,2.75
2022-08-11T19:11:43.734Z,2.28
2022-08-11T19:14:31.201Z,2.97
2022-08-11T19:17:43.754Z,3.17
2022-08-11T19:20:26.832Z,2.92
2022-08-11T19:23:14.947Z,2.20
2022-08-11T19:26:02.741Z,2.55
2022-08-11T19:28:49.024Z,2.72
2022-08-11T19:31:34.356Z,3.95
2022-08-11T19:34:20.217Z,3.47
2022-08-11T19:37:06.455Z,2.92
2022-08-11T19:39:53.591Z,2.65
2022-08-11T19:42:39.469Z,3.13
2022-08-11T19:45:25.439Z,3.28
2022-08-11T19:51:17.808Z,3.42
2022-08-11T19:54:04.143Z,3.30
2022-08-11T19:56:49.552Z,3.70
2022-08-11T19:59:37.795Z,3.40
2022-08-11T20:02:24.133Z,2.72
2022-08-11T20:05:09.357Z,3.80
2022-08-11T20:07:56.241Z,3.28
2022-08-11T20:10:42.109Z,3.20
2022-08-11T20:13:30.157Z,2.88
2022-08-11T20:16:16.693Z,3.28
2022-08-11T20:19:02.627Z,3.40
2022-08-11T20:21:48.515Z,3.20
2022-08-11T20:24:36.225Z,2.70
2022-08-11T20:27:24.984Z,3.05
2022-08-11T20:30:11.851Z,3.25
2022-08-11T20:32:59.415Z,2.80
2022-08-11T20:35:45.291Z,2.85
2022-08-11T20:38:33.680Z,2.75
2022-08-11T20:41:20.136Z,3.08
2022-08-11T20:44:09.441Z,2.67
2022-08-11T20:46:59.135Z,3.10
2022-08-11T20:49:53.684Z,3.30
2022-08-11T20:52:47.532Z,3.20
2022-08-11T20:55:51.864Z,2.85
2022-08-11T21:01:46.721Z,3.60
2022-08-11T21:04:32.987Z,4.00
2022-08-11T21:07:28.722Z,3.17
2022-08-11T21:10:19.427Z,3.25
2022-08-11T21:13:26.505Z,2.72
2022-08-11T21:16:25.316Z,4.28
2022-08-11T21:19:18.934Z,3.15
2022-08-11T21:22:27.988Z,3.90
2022-08-11T21:25:16.073Z,4.22
2022-08-11T21:28:02.876Z,4.47
2022-08-11T21:30:50.068Z,4.65
2022-08-11T21:33:35.430Z,4.15
2022-08-11T21:36:21.737Z,4.60
2022-08-11T21:39:09.252Z,3.47
2022-08-11T21:41:55.941Z,4.18
2022-08-11T21:44:42.289Z,4.07
2022-08-11T21:47:43.188Z,3.90
2022-08-11T21:50:29.637Z,3.70
2022-08-11T21:53:16.581Z,4.55
2022-08-11T21:56:02.502Z,3.67
2022-08-11T21:58:48.768Z,4.93
2022-08-11T22:01:34.747Z,3.55
2022-08-11T22:04:21.398Z,4.10
2022-08-11T22:07:09.235Z,3.92
2022-08-11T22:09:55.588Z,4.57
2022-08-11T22:12:44.698Z,4.65
2022-08-11T22:15:31.156Z,4.40
2022-08-11T22:18:16.313Z,4.30
2022-08-11T22:21:02.284Z,4.90
2022-08-11T22:23:49.755Z,5.38
2022-08-11T22:26:36.476Z,6.35
2022-08-11T22:29:50.251Z,6.80
2022-08-11T22:32:31.717Z,6.70
2022-08-11T22:35:18.511Z,5.95
2022-08-11T22:38:05.729Z,5.55
2022-08-11T22:40:52.747Z,4.90
2022-08-11T22:43:38.570Z,5.22
2022-08-11T22:46:23.801Z,4.70
2022-08-11T22:49:09.500Z,5.32
2022-08-11T22:51:56.915Z,3.40
2022-08-11T22:54:42.477Z,3.72
2022-08-11T22:57:28.783Z,4.82
2022-08-11T23:00:15.546Z,6.15
2022-08-11T23:03:00.891Z,5.28
2022-08-11T23:05:47.678Z,5.15
2022-08-11T23:08:34.455Z,5.93
2022-08-11T23:11:20.335Z,6.38
2022-08-11T23:14:05.574Z,6.57
2022-08-11T23:16:50.947Z,6.32
2022-08-11T23:20:10.444Z,5.30
2022-08-11T23:22:49.985Z,4.85
2022-08-11T23:25:36.402Z,4.55
2022-08-11T23:28:23.675Z,4.00
2022-08-11T23:31:12.539Z,4.93
2022-08-11T23:34:01.032Z,5.13
2022-08-11T23:36:46.998Z,4.22
2022-08-11T23:39:33.295Z,3.30
2022-08-11T23:42:18.464Z,3.72
2022-08-11T23:45:05.113Z,3.22
2022-08-11T23:47:53.911Z,3.22
2022-08-11T23:50:39.245Z,1.67
2022-08-11T23:53:25.475Z,2.00
2022-08-11T23:56:10.945Z,1.73
2022-08-11T23:58:57.393Z,1.63
